Time;durP1;ratioP1;P1;durP2;ratioP2;P2;SDS_P1;SDS_P2;PMS_P1;PMS_P2;Temp;Humidity;BMP_temperature;BMP_pressure;BME280_temperature;BME280_humidity;BME280_pressure;Samples;Min_cycle;Max_cycle;Signal;HPM_P1;HPM_P2
2023/05/05 00:01:14;;;;;;;3.60;1.20;;;16.70;99.90;;;;;;5008101;28;20065;-78
2023/05/05 00:03:41;;;;;;;2.35;1.38;;;16.70;99.90;;;;;;5007348;28;20053;-78
2023/05/05 00:06:08;;;;;;;3.03;1.30;;;16.70;99.90;;;;;;5013875;28;20058;-77
2023/05/05 00:08:35;;;;;;;4.45;1.23;;;16.70;99.90;;;;;;5008614;28;20056;-78
2023/05/05 00:11:02;;;;;;;2.05;1.27;;;16.70;99.90;;;;;;5004670;28;20046;-77
2023/05/05 00:13:28;;;;;;;3.67;1.08;;;16.70;99.90;;;;;;5009054;28;20050;-78
2023/05/05 00:15:55;;;;;;;4.35;1.33;;;16.70;99.90;;;;;;5006443;28;20054;-78
2023/05/05 00:18:22;;;;;;;3.70;1.50;;;16.70;99.90;;;;;;5007325;28;20413;-78
2023/05/05 00:20:49;;;;;;;2.55;1.20;;;16.70;99.90;;;;;;5013961;28;20052;-77
2023/05/05 00:23:16;;;;;;;3.17;1.02;;;16.70;99.90;;;;;;5008646;28;20056;-78
2023/05/05 00:25:42;;;;;;;2.65;1.42;;;16.70;99.90;;;;;;5008050;28;20042;-78
2023/05/05 00:28:09;;;;;;;2.75;1.25;;;16.70;99.90;;;;;;5014174;28;20053;-77
2023/05/05 00:30:38;;;;;;;4.00;1.05;;;16.70;99.90;;;;;;5007069;28;20042;-76
2023/05/05 00:33:05;;;;;;;3.03;1.67;;;16.70;99.90;;;;;;5012295;28;20494;-77
2023/05/05 00:35:32;;;;;;;1.58;1.20;;;16.70;99.90;;;;;;5009094;28;20104;-78
2023/05/05 00:37:58;;;;;;;3.67;1.27;;;16.70;99.90;;;;;;5010692;28;20042;-78
2023/05/05 00:40:25;;;;;;;2.67;1.08;;;16.70;99.90;;;;;;5012277;28;20137;-78
2023/05/05 00:42:52;;;;;;;5.80;1.20;;;16.80;99.90;;;;;;5008250;28;20051;-78
2023/05/05 00:45:19;;;;;;;3.60;1.38;;;16.80;99.90;;;;;;5008531;28;20046;-78
2023/05/05 00:47:52;;;;;;;2.63;1.17;;;16.80;99.90;;;;;;5005991;28;20108;-77
2023/05/05 00:50:30;;;;;;;2.35;1.33;;;16.80;99.90;;;;;;5007130;28;20054;-77
2023/05/05 00:53:04;;;;;;;1.63;1.30;;;16.80;99.90;;;;;;5005542;28;20125;-77
2023/05/05 00:55:33;;;;;;;2.10;1.20;;;16.80;99.90;;;;;;5013090;28;20121;-77
2023/05/05 00:58:01;;;;;;;6.35;1.35;;;16.90;99.90;;;;;;4996056;28;20053;-77
2023/05/05 01:00:28;;;;;;;3.50;1.33;;;16.80;99.90;;;;;;5000742;28;20121;-77
2023/05/05 01:02:55;;;;;;;1.38;1.00;;;16.80;99.90;;;;;;5010295;28;20056;-78
2023/05/05 01:05:23;;;;;;;1.55;1.00;;;16.80;99.90;;;;;;5004329;28;20128;-77
2023/05/05 01:08:03;;;;;;;1.10;1.00;;;16.90;99.90;;;;;;5007265;28;20057;-77
2023/05/05 01:10:35;;;;;;;2.90;1.10;;;16.90;99.90;;;;;;5013077;28;20049;-78
2023/05/05 01:13:24;;;;;;;3.15;1.20;;;16.90;99.90;;;;;;5006340;28;20061;-77
2023/05/05 01:16:10;;;;;;;3.15;1.10;;;17.00;99.90;;;;;;5007419;28;20038;-78
2023/05/05 01:18:46;;;;;;;6.45;1.38;;;17.10;99.90;;;;;;5004116;28;20050;-77
2023/05/05 01:21:19;;;;;;;5.30;1.33;;;17.10;99.90;;;;;;5009860;28;20046;-78
2023/05/05 01:24:14;;;;;;;3.15;0.93;;;17.20;99.90;;;;;;5007563;28;20057;-77
2023/05/05 01:26:56;;;;;;;2.63;1.10;;;17.20;99.90;;;;;;5009302;28;20053;-78
2023/05/05 01:29:42;;;;;;;2.33;1.30;;;17.20;99.90;;;;;;5008716;28;20524;-78
2023/05/05 01:32:26;;;;;;;3.70;1.35;;;17.20;99.90;;;;;;5007158;28;20046;-76
2023/05/05 01:35:24;;;;;;;4.95;1.17;;;17.30;99.90;;;;;;5005632;28;20104;-77
2023/05/05 01:38:16;;;;;;;5.30;1.35;;;17.40;99.90;;;;;;5001879;28;20046;-77
2023/05/05 01:40:47;;;;;;;5.57;1.30;;;17.40;99.90;;;;;;4998569;28;20421;-78
2023/05/05 01:43:16;;;;;;;1.38;1.10;;;17.40;99.90;;;;;;4999720;28;20063;-78
2023/05/05 01:45:44;;;;;;;5.68;2.42;;;17.40;99.90;;;;;;5011332;28;20046;-78
2023/05/05 01:48:14;;;;;;;4.20;1.52;;;17.50;99.90;;;;;;5010858;28;20053;-77
2023/05/05 01:50:42;;;;;;;5.38;2.03;;;17.50;99.90;;;;;;5010902;28;20046;-77
2023/05/05 01:53:10;;;;;;;3.03;1.20;;;17.50;99.90;;;;;;5008418;28;20050;-77
2023/05/05 01:55:38;;;;;;;7.05;1.98;;;17.50;99.90;;;;;;5008985;28;20047;-78
2023/05/05 01:58:07;;;;;;;1.58;1.30;;;17.50;99.90;;;;;;5008940;28;20050;-77
2023/05/05 02:00:34;;;;;;;2.88;1.20;;;17.60;99.90;;;;;;5007242;28;20050;-77
2023/05/05 02:03:03;;;;;;;3.80;1.30;;;17.60;99.90;;;;;;5009108;28;20050;-78
2023/05/05 02:05:32;;;;;;;2.50;1.40;;;17.60;99.90;;;;;;5009142;28;20516;-78
2023/05/05 02:08:00;;;;;;;4.27;1.90;;;17.60;99.90;;;;;;5007454;28;20053;-77
2023/05/05 02:10:27;;;;;;;9.10;1.80;;;17.60;99.90;;;;;;5010770;28;20291;-78
2023/05/05 02:12:55;;;;;;;2.08;1.52;;;17.70;99.90;;;;;;5006262;28;20050;-78
2023/05/05 02:15:23;;;;;;;6.20;1.50;;;17.70;99.90;;;;;;5009219;28;20621;-77
2023/05/05 02:17:51;;;;;;;3.13;1.27;;;17.70;99.90;;;;;;5014444;28;20072;-78
2023/05/05 02:20:19;;;;;;;3.65;1.60;;;17.70;99.90;;;;;;5008924;28;20049;-77
2023/05/05 02:22:46;;;;;;;3.88;1.67;;;17.80;99.90;;;;;;5006059;28;20046;-77
2023/05/05 02:25:13;;;;;;;2.10;1.40;;;17.80;99.90;;;;;;5008454;28;20049;-77
2023/05/05 02:27:43;;;;;;;3.92;1.20;;;17.80;99.90;;;;;;5010868;28;20050;-77
2023/05/05 02:30:13;;;;;;;4.78;1.63;;;17.80;99.90;;;;;;5004389;28;20137;-77
2023/05/05 02:32:45;;;;;;;4.25;1.90;;;17.80;99.90;;;;;;5009339;28;20052;-77
2023/05/05 02:35:21;;;;;;;5.40;1.95;;;17.80;99.90;;;;;;5009453;28;20113;-78
2023/05/05 02:37:54;;;;;;;3.58;2.00;;;17.80;99.90;;;;;;5004653;28;20042;-78
2023/05/05 02:40:25;;;;;;;2.63;1.55;;;17.80;99.90;;;;;;5010370;28;20037;-77
2023/05/05 02:42:53;;;;;;;3.63;1.90;;;17.80;99.90;;;;;;5004504;28;20046;-78
2023/05/05 02:45:21;;;;;;;4.40;2.10;;;17.80;99.90;;;;;;5015319;28;20078;-78
2023/05/05 02:47:48;;;;;;;7.18;1.70;;;17.80;99.90;;;;;;5010293;28;20101;-78
2023/05/05 02:50:15;;;;;;;5.32;1.95;;;17.70;99.90;;;;;;5015324;28;20472;-78
2023/05/05 02:52:42;;;;;;;3.10;1.75;;;17.80;99.90;;;;;;5005739;28;20133;-78
2023/05/05 02:55:09;;;;;;;9.70;1.88;;;17.70;99.90;;;;;;5008610;28;20468;-78
2023/05/05 02:58:13;;;;;;;4.30;2.00;;;17.70;99.90;;;;;;5012932;28;20144;-78
2023/05/05 03:01:13;;;;;;;2.92;1.52;;;17.70;99.90;;;;;;5003451;28;20042;-78
2023/05/05 03:03:48;;;;;;;5.63;2.25;;;17.70;99.90;;;;;;5009997;28;20042;-77
2023/05/05 03:06:18;;;;;;;4.50;2.17;;;17.70;99.90;;;;;;5015173;28;20045;-78
2023/05/05 03:09:05;;;;;;;2.45;2.08;;;17.70;99.90;;;;;;5004526;28;20048;-78
2023/05/05 03:11:42;;;;;;;5.00;2.03;;;17.70;99.90;;;;;;5004465;28;20050;-78
2023/05/05 03:14:17;;;;;;;3.92;2.05;;;17.60;99.90;;;;;;5003447;28;20062;-78
2023/05/05 03:16:46;;;;;;;4.80;2.20;;;17.60;99.90;;;;;;5012781;28;20039;-78
2023/05/05 03:19:16;;;;;;;7.35;2.30;;;17.60;99.90;;;;;;5011156;28;20042;-77
2023/05/05 03:21:43;;;;;;;;;;;17.60;99.90;;;;;;5006012;28;20046;-77
2023/05/05 03:24:17;;;;;;;6.05;2.60;;;17.60;99.90;;;;;;5001789;28;20393;-77
2023/05/05 03:26:46;;;;;;;6.60;2.55;;;17.60;99.90;;;;;;5002672;28;20442;-78
2023/05/05 03:29:13;;;;;;;9.23;2.75;;;17.60;99.90;;;;;;5002068;28;20052;-77
2023/05/05 03:31:40;;;;;;;3.33;2.63;;;17.60;99.90;;;;;;5005920;28;20050;-75
2023/05/05 03:34:08;;;;;;;2.92;2.60;;;17.60;99.90;;;;;;5004660;28;20461;-77
2023/05/05 03:36:35;;;;;;;2.80;2.10;;;17.60;99.90;;;;;;5004815;28;20461;-76
2023/05/05 03:39:02;;;;;;;9.48;2.70;;;17.60;99.90;;;;;;5000808;28;20100;-77
2023/05/05 03:41:29;;;;;;;5.38;3.28;;;17.50;99.90;;;;;;5014567;28;20569;-77
2023/05/05 03:43:56;;;;;;;7.25;2.67;;;17.50;99.90;;;;;;5003427;28;20046;-76
2023/05/05 03:46:22;;;;;;;9.43;2.92;;;17.50;99.90;;;;;;5007245;28;20052;-76
2023/05/05 03:48:50;;;;;;;8.85;2.67;;;17.50;99.90;;;;;;5003614;28;20056;-76
2023/05/05 03:51:17;;;;;;;5.57;2.60;;;17.40;99.90;;;;;;5029131;23;20506;-77
2023/05/05 03:53:43;;;;;;;5.40;2.75;;;17.40;99.90;;;;;;4990556;28;20042;-77
2023/05/05 03:56:10;;;;;;;5.38;3.00;;;17.40;99.90;;;;;;4994526;28;20058;-77
2023/05/05 03:58:37;;;;;;;5.22;2.97;;;17.40;99.90;;;;;;4991922;28;20044;-77
2023/05/05 04:01:07;;;;;;;4.30;2.70;;;17.40;99.90;;;;;;4980760;28;20531;-77
2023/05/05 04:03:33;;;;;;;6.53;2.65;;;17.30;99.90;;;;;;4969915;28;20427;-77
2023/05/05 04:06:00;;;;;;;6.93;2.83;;;17.30;99.90;;;;;;4981406;28;20454;-77
2023/05/05 04:08:27;;;;;;;3.95;2.97;;;17.30;99.90;;;;;;4975964;28;20071;-76
2023/05/05 04:10:53;;;;;;;6.90;3.33;;;17.30;99.90;;;;;;4971008;28;20043;-76
2023/05/05 04:13:20;;;;;;;7.25;3.15;;;17.20;99.90;;;;;;4974373;28;20051;-77
2023/05/05 04:15:47;;;;;;;4.35;2.92;;;17.20;99.90;;;;;;4974188;28;20474;-77
2023/05/05 04:18:13;;;;;;;5.63;3.08;;;17.30;99.90;;;;;;4974075;28;20130;-76
2023/05/05 04:20:40;;;;;;;4.28;2.70;;;17.20;99.90;;;;;;4973705;28;20051;-76
2023/05/05 04:23:07;;;;;;;6.78;3.03;;;17.20;99.90;;;;;;4974048;28;20062;-77
2023/05/05 04:25:34;;;;;;;5.45;3.03;;;17.20;99.90;;;;;;4973060;28;20050;-76
2023/05/05 04:28:01;;;;;;;4.65;2.97;;;17.20;99.90;;;;;;4970966;28;20051;-77
2023/05/05 04:30:27;;;;;;;5.65;3.45;;;17.10;99.90;;;;;;4976672;28;20050;-77
2023/05/05 04:32:54;;;;;;;7.22;3.10;;;17.10;99.90;;;;;;4971496;28;20039;-77
2023/05/05 04:35:21;;;;;;;5.18;3.42;;;17.10;99.90;;;;;;4973126;28;20039;-77
2023/05/05 04:37:48;;;;;;;6.72;3.88;;;17.10;99.90;;;;;;4974178;28;20038;-77
2023/05/05 04:40:15;;;;;;;7.47;3.88;;;17.10;99.90;;;;;;4985189;28;20047;-76
2023/05/05 04:42:41;;;;;;;11.57;4.53;;;17.00;99.90;;;;;;4974586;28;20065;-76
2023/05/05 04:45:08;;;;;;;6.05;3.45;;;17.00;99.90;;;;;;4986229;28;20452;-76
2023/05/05 04:47:39;;;;;;;6.10;3.78;;;16.90;99.90;;;;;;4971065;28;20454;-76
2023/05/05 04:50:06;;;;;;;6.57;3.85;;;16.90;99.90;;;;;;4971033;28;20087;-76
2023/05/05 04:52:33;;;;;;;6.03;3.53;;;16.80;99.90;;;;;;4972604;28;20042;-76
2023/05/05 04:55:00;;;;;;;6.05;3.45;;;16.60;99.90;;;;;;4972566;28;20088;-76
2023/05/05 04:57:28;;;;;;;4.75;3.28;;;16.50;99.90;;;;;;4973629;28;20043;-76
2023/05/05 04:59:54;;;;;;;4.60;3.05;;;16.50;99.90;;;;;;4986076;28;20077;-76
2023/05/05 05:02:21;;;;;;;7.03;4.20;;;16.50;99.90;;;;;;4970515;28;20047;-76
2023/05/05 05:04:48;;;;;;;3.40;3.10;;;16.50;99.90;;;;;;4970643;28;20043;-76
2023/05/05 05:07:15;;;;;;;9.18;3.33;;;16.50;99.90;;;;;;4972699;28;20423;-76
2023/05/05 05:09:41;;;;;;;4.53;3.53;;;16.50;99.90;;;;;;4972396;28;20407;-76
2023/05/05 05:12:08;;;;;;;6.63;3.70;;;16.50;99.90;;;;;;4973872;28;20425;-76
2023/05/05 05:14:38;;;;;;;3.75;3.33;;;16.50;99.90;;;;;;4976232;28;20550;-76
2023/05/05 05:17:05;;;;;;;8.77;3.65;;;16.50;99.90;;;;;;4970289;28;20082;-75
2023/05/05 05:19:32;;;;;;;6.05;3.83;;;16.50;99.90;;;;;;4978339;28;20051;-76
2023/05/05 05:21:59;;;;;;;6.70;3.80;;;16.50;99.90;;;;;;4972513;28;20046;-76
2023/05/05 05:24:26;;;;;;;7.60;3.30;;;16.50;99.90;;;;;;4969353;28;20092;-75
2023/05/05 05:26:52;;;;;;;4.43;3.58;;;16.50;99.90;;;;;;4976096;28;20089;-76
2023/05/05 05:29:19;;;;;;;12.45;4.28;;;16.50;99.90;;;;;;4975981;28;20053;-75
2023/05/05 05:31:46;;;;;;;8.07;4.18;;;16.50;99.90;;;;;;4973300;28;20039;-76
2023/05/05 05:34:12;;;;;;;6.82;3.80;;;16.50;99.90;;;;;;4975017;28;20463;-76
2023/05/05 05:36:39;;;;;;;8.65;3.70;;;16.60;99.90;;;;;;4978065;28;20050;-75
2023/05/05 05:39:06;;;;;;;7.80;3.70;;;16.60;99.90;;;;;;4973512;28;20051;-75
2023/05/05 05:41:32;;;;;;;7.78;3.72;;;16.70;99.90;;;;;;4974057;28;20047;-76
2023/05/05 05:43:59;;;;;;;4.88;3.63;;;16.70;99.90;;;;;;4967987;28;20055;-75
2023/05/05 05:46:26;;;;;;;8.55;3.50;;;16.70;99.90;;;;;;4972001;28;20535;-75
2023/05/05 05:48:52;;;;;;;7.28;3.70;;;16.70;99.90;;;;;;4970332;28;20043;-76
2023/05/05 05:51:19;;;;;;;5.97;3.80;;;16.80;99.90;;;;;;4974587;28;20058;-76
2023/05/05 05:53:46;;;;;;;6.05;3.70;;;16.80;99.90;;;;;;4977324;28;20446;-76
2023/05/05 05:56:12;;;;;;;7.25;3.50;;;16.90;99.90;;;;;;4972409;28;20042;-75
2023/05/05 05:58:39;;;;;;;5.57;3.30;;;16.90;99.90;;;;;;4970600;28;20051;-76
2023/05/05 06:01:06;;;;;;;12.23;4.30;;;17.00;99.90;;;;;;4971745;28;20073;-76
2023/05/05 06:03:33;;;;;;;5.10;3.67;;;17.10;99.90;;;;;;4969202;28;20057;-76
2023/05/05 06:06:00;;;;;;;5.70;3.38;;;17.10;99.90;;;;;;4969435;28;20510;-76
2023/05/05 06:08:27;;;;;;;10.15;3.60;;;17.20;99.90;;;;;;4970741;28;20046;-76
2023/05/05 06:10:53;;;;;;;5.63;3.08;;;17.30;99.90;;;;;;4968980;28;20046;-75
2023/05/05 06:13:20;;;;;;;5.85;3.22;;;17.40;99.90;;;;;;4975601;28;20499;-76
2023/05/05 06:15:47;;;;;;;4.22;3.25;;;17.50;99.90;;;;;;4973299;28;20049;-76
2023/05/05 06:18:13;;;;;;;12.00;5.18;;;17.50;99.90;;;;;;4970014;28;20474;-76
2023/05/05 06:20:42;;;;;;;7.30;3.20;;;17.60;99.90;;;;;;4968736;28;20410;-76
2023/05/05 06:23:08;;;;;;;6.13;3.05;;;17.70;99.90;;;;;;4972291;28;20286;-76
2023/05/05 06:25:36;;;;;;;7.30;2.72;;;17.80;99.90;;;;;;4972372;28;20426;-76
2023/05/05 06:28:04;;;;;;;7.40;3.10;;;17.90;99.90;;;;;;4972143;28;20134;-76
2023/05/05 06:30:31;;;;;;;4.20;2.53;;;18.00;99.90;;;;;;4974926;28;20442;-76
2023/05/05 06:32:58;;;;;;;5.90;2.38;;;18.00;99.90;;;;;;4974158;28;20054;-76
2023/05/05 06:35:25;;;;;;;5.45;2.85;;;18.20;99.90;;;;;;4975272;28;20043;-76
2023/05/05 06:37:51;;;;;;;5.78;2.50;;;18.20;99.90;;;;;;4975422;28;20089;-76
2023/05/05 06:40:18;;;;;;;4.28;2.55;;;18.30;99.90;;;;;;4970158;28;20077;-76
2023/05/05 06:42:45;;;;;;;3.55;2.55;;;18.40;99.90;;;;;;4983893;28;20055;-76
2023/05/05 06:45:12;;;;;;;4.93;2.00;;;18.40;99.90;;;;;;4979465;28;20066;-76
2023/05/05 06:47:38;;;;;;;5.05;2.47;;;18.50;99.90;;;;;;4970126;28;20054;-76
2023/05/05 06:50:07;;;;;;;4.07;2.45;;;18.50;99.90;;;;;;4961939;28;20109;-76
2023/05/05 06:52:34;;;;;;;4.10;2.60;;;18.50;99.90;;;;;;4971271;28;20530;-76
2023/05/05 06:55:02;;;;;;;3.45;2.22;;;18.60;99.90;;;;;;4972834;28;20058;-76
2023/05/05 06:57:29;;;;;;;4.28;2.78;;;18.60;99.90;;;;;;4970459;28;20065;-76
2023/05/05 06:59:55;;;;;;;3.80;2.60;;;18.60;99.90;;;;;;4970990;28;20053;-76
2023/05/05 07:02:22;;;;;;;4.18;2.58;;;18.60;99.90;;;;;;4974193;28;20050;-76
2023/05/05 07:04:54;;;;;;;6.32;3.03;;;18.60;99.90;;;;;;4971069;28;20038;-76
2023/05/05 07:07:20;;;;;;;4.43;2.83;;;18.60;99.90;;;;;;4967173;28;20130;-76
2023/05/05 07:09:47;;;;;;;9.15;2.60;;;18.60;99.90;;;;;;4972675;28;20053;-76
2023/05/05 07:12:14;;;;;;;2.60;2.00;;;18.60;99.90;;;;;;4977923;28;20043;-76
2023/05/05 07:14:40;;;;;;;4.22;2.08;;;18.70;99.90;;;;;;4968616;28;20043;-76
2023/05/05 07:17:07;;;;;;;2.85;1.88;;;18.70;99.90;;;;;;4965744;28;20047;-76
2023/05/05 07:19:34;;;;;;;4.30;2.45;;;18.70;99.90;;;;;;4972710;28;20039;-76
2023/05/05 07:22:00;;;;;;;7.50;2.50;;;18.70;99.90;;;;;;4974249;28;20514;-76
2023/05/05 07:24:27;;;;;;;3.35;2.50;;;18.80;99.90;;;;;;4972807;28;20055;-76
2023/05/05 07:26:54;;;;;;;3.10;2.65;;;18.80;99.90;;;;;;4972663;28;20050;-76
2023/05/05 07:29:21;;;;;;;4.35;2.60;;;18.80;99.90;;;;;;4973072;28;20047;-77
2023/05/05 07:31:47;;;;;;;7.35;3.03;;;18.80;99.90;;;;;;4972832;28;20051;-77
2023/05/05 07:34:14;;;;;;;6.57;2.80;;;18.90;99.90;;;;;;4978906;28;20467;-75
2023/05/05 07:36:41;;;;;;;3.80;2.53;;;18.90;99.90;;;;;;4972859;28;20047;-75
2023/05/05 07:39:07;;;;;;;5.38;3.20;;;19.00;99.90;;;;;;4984681;28;20043;-75
2023/05/05 07:41:34;;;;;;;3.58;2.35;;;19.00;99.90;;;;;;4972641;28;20125;-76
2023/05/05 07:44:01;;;;;;;3.92;2.30;;;19.10;99.90;;;;;;4975995;28;20474;-75
2023/05/05 07:46:27;;;;;;;4.32;2.78;;;19.20;99.90;;;;;;4973656;28;20053;-76
2023/05/05 07:48:54;;;;;;;3.85;2.95;;;19.30;99.90;;;;;;4973734;28;20125;-76
2023/05/05 07:51:21;;;;;;;6.30;2.60;;;19.40;99.90;;;;;;4972166;28;20538;-76
2023/05/05 07:53:48;;;;;;;4.53;2.90;;;19.50;99.90;;;;;;4971550;28;20039;-76
2023/05/05 07:56:14;;;;;;;6.63;2.90;;;19.60;99.90;;;;;;4969890;28;20043;-76
2023/05/05 07:58:41;;;;;;;4.65;2.90;;;19.60;99.90;;;;;;4970295;28;20047;-75
2023/05/05 08:01:09;;;;;;;6.70;2.92;;;19.70;99.90;;;;;;4970028;28;20051;-77
2023/05/05 08:03:36;;;;;;;5.55;2.40;;;19.70;99.90;;;;;;4967690;28;20050;-76
2023/05/05 08:06:10;;;;;;;2.83;2.45;;;19.70;99.90;;;;;;4975522;28;20062;-75
2023/05/05 08:08:37;;;;;;;5.72;2.40;;;19.80;99.90;;;;;;4974057;28;20054;-78
2023/05/05 08:11:05;;;;;;;3.00;2.33;;;19.80;99.90;;;;;;4967575;28;20042;-77
2023/05/05 08:13:32;;;;;;;4.88;2.22;;;19.90;99.90;;;;;;4977355;28;20046;-76
2023/05/05 08:15:59;;;;;;;4.88;2.03;;;20.00;99.90;;;;;;4974918;28;20121;-77
2023/05/05 08:18:26;;;;;;;6.15;2.25;;;20.10;99.90;;;;;;4969817;28;20504;-76
2023/05/05 08:20:53;;;;;;;3.13;2.00;;;20.20;99.90;;;;;;4970152;28;20506;-76
2023/05/05 08:23:20;;;;;;;8.13;2.05;;;20.20;99.90;;;;;;4969601;28;20085;-76
2023/05/05 08:25:47;;;;;;;4.40;1.77;;;20.30;99.90;;;;;;4971877;28;20129;-77
2023/05/05 08:28:13;;;;;;;4.25;1.90;;;20.30;99.90;;;;;;4971429;28;20054;-76
2023/05/05 08:30:41;;;;;;;3.10;2.30;;;20.30;99.90;;;;;;4972478;28;20049;-77
2023/05/05 08:33:08;;;;;;;4.60;1.67;;;20.30;99.90;;;;;;4975124;28;20043;-76
2023/05/05 08:35:34;;;;;;;2.30;1.75;;;20.40;99.90;;;;;;4973589;28;20042;-76
2023/05/05 08:38:01;;;;;;;3.35;1.92;;;20.40;99.90;;;;;;4971476;28;20046;-76
2023/05/05 08:40:32;;;;;;;4.32;1.70;;;20.50;99.90;;;;;;4977866;28;20053;-77
2023/05/05 08:43:00;;;;;;;3.15;1.80;;;20.50;99.90;;;;;;4969323;28;20082;-76
2023/05/05 08:45:28;;;;;;;3.22;1.95;;;20.60;99.90;;;;;;4969029;28;21115;-76
2023/05/05 08:47:56;;;;;;;2.78;2.00;;;20.60;99.90;;;;;;4973118;28;20049;-76
2023/05/05 08:50:26;;;;;;;3.42;1.80;;;20.70;99.90;;;;;;4971585;28;20074;-77
2023/05/05 08:53:03;;;;;;;6.88;3.35;;;20.70;99.90;;;;;;4975483;28;20047;-76
2023/05/05 08:55:33;;;;;;;3.67;2.50;;;20.70;99.90;;;;;;4964975;28;20043;-76
2023/05/05 08:58:04;;;;;;;6.57;1.92;;;20.70;99.90;;;;;;4971966;28;20097;-77
2023/05/05 09:00:31;;;;;;;4.82;1.88;;;20.80;99.90;;;;;;4969959;28;20043;-76
2023/05/05 09:02:58;;;;;;;7.10;2.80;;;20.90;99.90;;;;;;4970406;28;20505;-76
2023/05/05 09:05:25;;;;;;;3.50;2.00;;;20.90;99.90;;;;;;4975863;28;20105;-76
2023/05/05 09:07:52;;;;;;;5.43;2.38;;;21.00;99.90;;;;;;4974212;28;20058;-77
2023/05/05 09:10:19;;;;;;;4.85;1.83;;;21.00;99.90;;;;;;4967854;28;20055;-76
2023/05/05 09:12:48;;;;;;;5.18;1.90;;;21.00;99.90;;;;;;4972161;28;20051;-76
2023/05/05 09:15:15;;;;;;;11.68;2.00;;;21.10;99.90;;;;;;4976489;28;20094;-76
2023/05/05 09:17:42;;;;;;;5.82;2.10;;;21.10;99.90;;;;;;4965834;28;20472;-76
2023/05/05 09:20:11;;;;;;;2.50;2.00;;;21.10;99.90;;;;;;4970387;28;20074;-77
2023/05/05 09:22:40;;;;;;;2.53;2.00;;;21.20;99.90;;;;;;4972439;28;20042;-76
2023/05/05 09:25:12;;;;;;;1.92;1.65;;;21.20;99.90;;;;;;4971665;28;20074;-77
2023/05/05 09:27:40;;;;;;;1.95;1.60;;;21.30;99.90;;;;;;4971180;28;20046;-76
2023/05/05 09:30:09;;;;;;;5.03;2.15;;;21.30;99.90;;;;;;4975774;28;20142;-76
2023/05/05 09:32:50;;;;;;;5.15;1.80;;;21.30;99.90;;;;;;4970764;28;20054;-77
2023/05/05 09:35:18;;;;;;;3.60;1.58;;;21.40;99.90;;;;;;4975879;28;20121;-77
2023/05/05 09:37:45;;;;;;;1.95;1.58;;;21.40;99.90;;;;;;4971999;28;20057;-77
2023/05/05 09:40:13;;;;;;;4.05;1.67;;;21.50;99.90;;;;;;4970621;28;20055;-77
2023/05/05 09:42:41;;;;;;;2.58;2.00;;;21.50;99.90;;;;;;4971459;28;20434;-76
2023/05/05 09:45:16;;;;;;;2.65;1.75;;;21.50;99.90;;;;;;4976218;28;20327;-76
2023/05/05 09:47:45;;;;;;;2.67;2.15;;;21.60;99.90;;;;;;4962758;28;20047;-76
2023/05/05 09:50:17;;;;;;;3.17;1.70;;;21.60;99.90;;;;;;4973645;28;20102;-76
2023/05/05 09:53:01;;;;;;;2.85;1.45;;;21.70;99.90;;;;;;4976924;28;20544;-76
2023/05/05 09:55:30;;;;;;;2.60;1.50;;;21.90;99.90;;;;;;4956751;28;20053;-76
2023/05/05 09:58:15;;;;;;;2.10;1.63;;;22.00;99.90;;;;;;4968584;28;20058;-76
2023/05/05 10:00:42;;;;;;;2.00;1.50;;;22.10;99.90;;;;;;4974380;28;20129;-76
2023/05/05 10:03:09;;;;;;;2.28;1.35;;;22.30;99.90;;;;;;4971299;28;20049;-76
2023/05/05 10:05:50;;;;;;;3.65;1.80;;;22.40;99.90;;;;;;4974603;28;20086;-77
2023/05/05 10:08:19;;;;;;;4.45;1.42;;;22.60;99.90;;;;;;5015670;23;20053;-78
2023/05/05 10:10:49;;;;;;;4.07;1.40;;;22.60;99.90;;;;;;5010551;28;20077;-76
2023/05/05 10:13:19;;;;;;;3.15;1.15;;;22.70;99.90;;;;;;5011092;28;20046;-77
2023/05/05 10:15:51;;;;;;;4.35;1.70;;;22.70;99.90;;;;;;5010824;28;20048;-77
2023/05/05 10:18:24;;;;;;;2.63;1.60;;;22.80;99.90;;;;;;4998373;28;20093;-78
2023/05/05 10:20:58;;;;;;;3.25;1.92;;;22.70;99.90;;;;;;4993956;28;20039;-77
2023/05/05 10:23:46;;;;;;;2.00;1.50;;;22.70;99.90;;;;;;4987247;28;20050;-77
2023/05/05 10:26:13;;;;;;;2.60;1.45;;;22.60;99.90;;;;;;4984444;28;20051;-78
2023/05/05 10:28:54;;;;;;;4.50;1.40;;;22.70;99.90;;;;;;4989865;28;20606;-78
2023/05/05 10:31:44;;;;;;;4.65;1.92;;;22.70;99.90;;;;;;4987719;28;20042;-79
2023/05/05 10:34:28;;;;;;;3.40;2.00;;;22.80;99.90;;;;;;4990841;28;20052;-77
2023/05/05 10:36:58;;;;;;;5.72;1.83;;;22.80;99.90;;;;;;5004149;28;20447;-78
2023/05/05 10:39:26;;;;;;;2.00;1.50;;;22.90;99.90;;;;;;4987807;28;20038;-77
2023/05/05 10:41:53;;;;;;;3.70;2.10;;;22.90;99.90;;;;;;4984809;28;20055;-77
2023/05/05 10:44:20;;;;;;;4.28;1.92;;;23.00;99.90;;;;;;4988659;28;20078;-78
2023/05/05 10:46:47;;;;;;;2.10;1.60;;;23.10;99.90;;;;;;4989256;28;20046;-76
2023/05/05 10:49:38;;;;;;;3.03;1.90;;;23.20;99.90;;;;;;4992115;28;20065;-77
2023/05/05 10:52:07;;;;;;;3.25;1.60;;;23.20;99.90;;;;;;4983680;28;20065;-77
2023/05/05 10:54:44;;;;;;;3.47;1.25;;;23.30;99.90;;;;;;4981281;28;20047;-78
2023/05/05 10:57:12;;;;;;;3.35;1.38;;;23.40;99.90;;;;;;4987684;28;20499;-77
2023/05/05 10:59:40;;;;;;;3.55;1.60;;;23.50;99.90;;;;;;4989425;28;20049;-77
2023/05/05 11:02:26;;;;;;;3.70;1.90;;;23.50;99.90;;;;;;4985305;28;20062;-77
2023/05/05 11:05:05;;;;;;;3.03;1.48;;;23.50;99.90;;;;;;4984802;28;20038;-78
2023/05/05 11:07:33;;;;;;;1.98;1.40;;;23.40;99.90;;;;;;4984477;28;20065;-77
2023/05/05 11:10:01;;;;;;;1.70;1.15;;;23.40;99.90;;;;;;4991876;28;20046;-77
2023/05/05 11:12:29;;;;;;;3.67;1.45;;;23.30;99.90;;;;;;4990010;28;20058;-78
2023/05/05 11:15:30;;;;;;;2.25;1.20;;;23.20;99.90;;;;;;4988638;28;20048;-77
2023/05/05 11:17:59;;;;;;;2.45;1.40;;;23.20;99.90;;;;;;4985922;28;20039;-77
2023/05/05 11:20:38;;;;;;;3.40;1.50;;;23.20;99.90;;;;;;4988156;28;20062;-80
2023/05/05 11:23:04;;;;;;;3.33;1.10;;;23.20;99.90;;;;;;4980249;28;20046;-78
2023/05/05 11:25:40;;;;;;;4.13;1.05;;;23.20;99.90;;;;;;4985605;28;20073;-78
2023/05/05 11:28:08;;;;;;;2.47;1.50;;;23.20;99.90;;;;;;4987659;28;20133;-78
2023/05/05 11:30:57;;;;;;;1.95;1.27;;;23.20;99.90;;;;;;5004832;28;20093;-78
2023/05/05 11:33:37;;;;;;;2.13;1.23;;;23.20;99.90;;;;;;4982221;28;20085;-76
2023/05/05 11:36:07;;;;;;;1.77;1.13;;;23.20;99.90;;;;;;4979601;28;20042;-78
2023/05/05 11:38:37;;;;;;;4.20;1.65;;;23.20;99.90;;;;;;4980594;28;20505;-76
2023/05/05 11:41:30;;;;;;;2.50;1.42;;;23.10;99.90;;;;;;4981813;28;20050;-76
2023/05/05 11:44:19;;;;;;;1.98;1.30;;;23.10;99.90;;;;;;4984905;28;20466;-77
2023/05/05 11:46:52;;;;;;;4.50;1.52;;;23.10;99.90;;;;;;4987930;28;20055;-76
2023/05/05 11:49:33;;;;;;;3.15;1.60;;;23.00;99.90;;;;;;4980789;28;20057;-76
2023/05/05 11:52:08;;;;;;;2.20;1.27;;;22.90;99.90;;;;;;4980492;28;20059;-76
2023/05/05 11:54:39;;;;;;;2.20;1.50;;;22.80;99.90;;;;;;4983869;28;20054;-76
2023/05/05 11:57:07;;;;;;;2.22;1.52;;;22.80;99.90;;;;;;4985467;28;20054;-76
2023/05/05 11:59:36;;;;;;;2.65;1.70;;;22.70;99.90;;;;;;4984254;28;20046;-76
2023/05/05 12:02:03;;;;;;;5.03;1.70;;;22.60;99.90;;;;;;4985120;28;20386;-78
2023/05/05 12:04:30;;;;;;;5.22;1.80;;;22.40;99.90;;;;;;4983605;28;20134;-76
2023/05/05 12:06:58;;;;;;;4.13;1.50;;;22.40;99.90;;;;;;4988098;28;20049;-76
2023/05/05 12:09:26;;;;;;;3.85;1.45;;;22.40;99.90;;;;;;4982225;28;20054;-76
2023/05/05 12:11:54;;;;;;;2.70;1.55;;;22.40;99.90;;;;;;4990197;28;20062;-76
2023/05/05 12:14:22;;;;;;;3.65;1.42;;;22.40;99.90;;;;;;4982423;28;20051;-76
2023/05/05 12:17:16;;;;;;;4.68;1.55;;;22.40;99.90;;;;;;4983557;28;20042;-76
2023/05/05 12:19:53;;;;;;;4.53;1.55;;;22.40;99.90;;;;;;4976467;28;20050;-77
2023/05/05 12:22:22;;;;;;;4.10;1.67;;;22.50;99.90;;;;;;4986830;28;20498;-76
2023/05/05 12:24:56;;;;;;;3.35;1.40;;;22.50;99.90;;;;;;4982027;28;20058;-76
2023/05/05 12:27:25;;;;;;;3.03;1.55;;;22.50;99.90;;;;;;4985185;28;20046;-77
2023/05/05 12:29:55;;;;;;;2.25;1.20;;;22.50;99.90;;;;;;4986803;28;20046;-77
2023/05/05 12:32:26;;;;;;;3.38;1.42;;;22.50;99.90;;;;;;4983350;28;20058;-77
2023/05/05 12:34:56;;;;;;;4.88;1.30;;;22.50;99.90;;;;;;4979736;28;20050;-76
2023/05/05 12:37:24;;;;;;;6.13;1.80;;;22.60;99.90;;;;;;4987680;28;20050;-76
2023/05/05 12:39:53;;;;;;;3.80;1.40;;;22.60;99.90;;;;;;4982028;28;20078;-76
2023/05/05 12:42:21;;;;;;;5.95;1.88;;;22.70;99.90;;;;;;4974602;28;20112;-77
2023/05/05 12:44:48;;;;;;;2.95;1.40;;;22.70;99.90;;;;;;4979401;28;20055;-77
2023/05/05 12:47:29;;;;;;;2.88;1.67;;;22.70;99.90;;;;;;4992293;28;20129;-76
2023/05/05 12:49:58;;;;;;;3.30;1.63;;;22.80;99.90;;;;;;4981094;28;20053;-76
2023/05/05 12:52:44;;;;;;;3.23;1.50;;;22.80;99.90;;;;;;4989264;28;20050;-76
2023/05/05 12:55:11;;;;;;;3.47;1.77;;;22.80;99.90;;;;;;4986830;28;20055;-76
2023/05/05 12:57:57;;;;;;;3.13;1.50;;;22.80;99.90;;;;;;4986071;28;20046;-77
2023/05/05 13:00:24;;;;;;;4.35;1.67;;;22.80;99.90;;;;;;4986723;28;20121;-77
2023/05/05 13:02:51;;;;;;;1.98;1.30;;;22.90;99.90;;;;;;4987504;28;20046;-77